createdAt,value
2023-02-02T00:01:25.408Z,3.15
2023-02-02T00:03:55.849Z,3.05
2023-02-02T00:06:25.095Z,3.00
2023-02-02T00:08:53.227Z,2.80
2023-02-02T00:11:20.853Z,3.28
2023-02-02T00:13:48.496Z,3.28
2023-02-02T00:16:43.194Z,3.40
2023-02-02T00:19:14.929Z,3.22
2023-02-02T00:21:43.241Z,2.92
2023-02-02T00:24:12.836Z,3.30
2023-02-02T00:26:41.862Z,3.35
2023-02-02T00:29:15.224Z,3.20
2023-02-02T00:31:42.997Z,3.30
2023-02-02T00:34:12.903Z,3.20
2023-02-02T00:36:40.710Z,2.50
2023-02-02T00:39:08.991Z,2.90
2023-02-02T00:41:36.621Z,3.38
2023-02-02T00:44:22.054Z,3.03
2023-02-02T00:46:49.677Z,3.30
2023-02-02T00:49:18.702Z,2.55
2023-02-02T00:51:46.336Z,3.03
2023-02-02T00:54:14.250Z,3.00
2023-02-02T00:56:41.949Z,2.47
2023-02-02T00:59:09.676Z,2.75
2023-02-02T01:01:37.639Z,2.63
2023-02-02T01:04:05.389Z,2.80
2023-02-02T01:06:34.352Z,2.83
2023-02-02T01:09:02.065Z,3.13
2023-02-02T01:11:31.032Z,3.13
2023-02-02T01:13:59.064Z,2.92
2023-02-02T01:16:26.885Z,2.83
2023-02-02T01:19:19.322Z,2.65
2023-02-02T01:21:48.431Z,2.85
2023-02-02T01:24:16.056Z,2.88
2023-02-02T01:26:43.819Z,2.90
2023-02-02T01:29:12.104Z,2.70
2023-02-02T01:34:25.069Z,3.10
2023-02-02T01:36:54.002Z,2.97
2023-02-02T01:39:21.565Z,2.90
2023-02-02T01:41:49.611Z,3.28
2023-02-02T01:45:15.582Z,3.07
2023-02-02T01:47:46.957Z,3.30
2023-02-02T01:50:16.911Z,2.92
2023-02-02T01:52:49.830Z,2.67
2023-02-02T01:55:21.241Z,3.00
2023-02-02T01:57:55.653Z,3.57
2023-02-02T02:00:27.088Z,3.30
2023-02-02T02:02:59.802Z,3.07
2023-02-02T02:05:31.235Z,2.65
2023-02-02T02:08:06.884Z,3.10
2023-02-02T02:10:34.905Z,3.20
2023-02-02T02:13:02.650Z,2.80
2023-02-02T02:15:51.518Z,3.08
2023-02-02T02:18:38.552Z,2.63
2023-02-02T02:22:05.746Z,3.40
2023-02-02T02:25:25.153Z,3.00
2023-02-02T02:28:29.931Z,3.00
2023-02-02T02:31:24.294Z,3.00
2023-02-02T02:34:01.093Z,2.90
2023-02-02T02:36:36.183Z,3.33
2023-02-02T02:39:16.747Z,2.72
2023-02-02T02:41:49.226Z,3.03
2023-02-02T02:44:19.188Z,3.17
2023-02-02T02:46:48.110Z,2.85
2023-02-02T02:49:18.231Z,3.43
2023-02-02T02:51:48.718Z,3.28
2023-02-02T02:54:20.997Z,3.67
2023-02-02T02:56:59.904Z,3.20
2023-02-02T02:59:38.264Z,3.08
2023-02-02T03:02:18.774Z,2.63
2023-02-02T03:04:56.912Z,3.10
2023-02-02T03:07:32.427Z,3.20
2023-02-02T03:10:01.753Z,3.38
2023-02-02T03:12:29.623Z,3.15
2023-02-02T03:14:57.194Z,3.13
2023-02-02T03:17:24.969Z,2.65
2023-02-02T03:19:53.936Z,2.78
2023-02-02T03:22:21.520Z,2.92
2023-02-02T03:24:49.111Z,2.72
2023-02-02T03:27:16.785Z,3.13
2023-02-02T03:29:44.447Z,3.00
2023-02-02T03:32:12.219Z,2.83
2023-02-02T03:34:39.836Z,2.67
2023-02-02T03:37:08.831Z,2.85
2023-02-02T03:39:36.406Z,3.00
2023-02-02T03:42:03.946Z,2.95
2023-02-02T03:44:31.617Z,2.70
2023-02-02T03:46:59.179Z,3.03
2023-02-02T03:49:26.830Z,2.47
2023-02-02T03:51:54.602Z,2.90
2023-02-02T03:54:23.676Z,2.97
2023-02-02T03:56:51.186Z,2.97
2023-02-02T03:59:18.763Z,2.90
2023-02-02T04:01:46.340Z,2.70
2023-02-02T04:04:14.014Z,2.63
2023-02-02T04:06:41.609Z,2.92
2023-02-02T04:09:09.330Z,3.17
2023-02-02T04:11:39.387Z,2.95
2023-02-02T04:14:07.687Z,2.60
2023-02-02T04:16:37.563Z,3.00
2023-02-02T04:19:05.432Z,2.75
2023-02-02T04:21:33.247Z,3.00
2023-02-02T04:24:01.042Z,2.58
2023-02-02T04:26:28.780Z,2.65
2023-02-02T04:28:57.752Z,2.40
2023-02-02T04:31:25.704Z,2.70
2023-02-02T04:33:53.289Z,2.40
2023-02-02T04:36:20.940Z,2.55
2023-02-02T04:38:50.317Z,2.50
2023-02-02T04:41:18.721Z,2.38
2023-02-02T04:43:47.037Z,2.40
2023-02-02T04:46:16.143Z,2.20
2023-02-02T04:48:43.931Z,2.40
2023-02-02T04:51:13.676Z,2.28
2023-02-02T04:53:41.541Z,1.98
2023-02-02T04:56:10.862Z,2.57
2023-02-02T04:58:38.517Z,2.20
2023-02-02T05:01:10.451Z,2.37
2023-02-02T05:03:40.161Z,2.60
2023-02-02T05:06:08.433Z,2.60
2023-02-02T05:08:36.066Z,2.80
2023-02-02T05:11:07.707Z,2.47
2023-02-02T05:13:35.693Z,2.67
2023-02-02T05:16:03.672Z,2.58
2023-02-02T05:18:31.509Z,2.10
2023-02-02T05:21:02.659Z,2.13
2023-02-02T05:23:30.839Z,2.35
2023-02-02T05:25:58.581Z,2.75
2023-02-02T05:28:26.394Z,2.83
2023-02-02T05:30:53.991Z,2.50
2023-02-02T05:33:21.575Z,2.93
2023-02-02T05:35:49.927Z,2.50
2023-02-02T05:38:18.887Z,2.45
2023-02-02T05:40:46.471Z,2.63
2023-02-02T05:43:14.115Z,3.00
2023-02-02T05:45:41.748Z,3.28
2023-02-02T05:48:10.544Z,3.25
2023-02-02T05:50:38.133Z,3.47
2023-02-02T05:53:05.820Z,3.95
2023-02-02T05:55:34.717Z,3.75
2023-02-02T05:58:02.248Z,4.13
2023-02-02T06:00:29.876Z,3.30
2023-02-02T06:02:57.459Z,2.50
2023-02-02T06:05:25.461Z,3.00
2023-02-02T06:07:53.175Z,2.97
2023-02-02T06:10:20.843Z,3.30
2023-02-02T06:12:49.775Z,3.28
2023-02-02T06:15:17.469Z,2.83
2023-02-02T06:17:45.133Z,2.95
2023-02-02T06:20:14.012Z,2.58
2023-02-02T06:22:42.818Z,3.30
2023-02-02T06:25:10.941Z,2.90
2023-02-02T06:27:38.502Z,2.97
2023-02-02T06:30:08.431Z,3.00
2023-02-02T06:32:36.043Z,3.28
2023-02-02T06:35:03.724Z,2.83
2023-02-02T06:37:31.483Z,3.05
2023-02-02T06:39:59.066Z,3.28
2023-02-02T06:42:26.773Z,2.97
2023-02-02T06:44:54.425Z,3.15
2023-02-02T06:47:24.519Z,2.73
2023-02-02T06:49:53.030Z,2.85
2023-02-02T06:52:20.597Z,2.80
2023-02-02T06:54:48.180Z,3.42
2023-02-02T06:57:15.736Z,2.20
2023-02-02T06:59:43.467Z,3.03
2023-02-02T07:02:13.309Z,3.20
2023-02-02T07:04:42.241Z,3.13
2023-02-02T07:07:10.049Z,3.58
2023-02-02T07:09:37.746Z,3.20
2023-02-02T07:12:05.411Z,3.13
2023-02-02T07:14:32.967Z,3.15
2023-02-02T07:17:00.564Z,3.20
2023-02-02T07:19:28.180Z,3.20
2023-02-02T07:21:57.107Z,3.03
2023-02-02T07:24:24.646Z,2.80
2023-02-02T07:26:52.228Z,2.92
2023-02-02T07:29:19.882Z,2.97
2023-02-02T07:31:47.599Z,3.22
2023-02-02T07:34:15.228Z,3.20
2023-02-02T07:36:42.821Z,3.00
2023-02-02T07:39:12.926Z,3.17
2023-02-02T07:41:40.607Z,2.72
2023-02-02T07:44:08.261Z,3.22
2023-02-02T07:46:35.870Z,3.20
2023-02-02T07:49:04.207Z,3.10
2023-02-02T07:51:31.799Z,3.13
2023-02-02T07:53:59.492Z,3.10
2023-02-02T07:56:28.925Z,3.00
2023-02-02T07:58:57.499Z,3.10
2023-02-02T08:01:26.594Z,3.33
2023-02-02T08:03:55.486Z,2.92
2023-02-02T08:06:24.944Z,2.30
2023-02-02T08:08:53.022Z,3.28
2023-02-02T08:11:22.960Z,2.65
2023-02-02T08:13:53.655Z,2.97
2023-02-02T08:16:22.144Z,3.10
2023-02-02T08:18:50.585Z,3.10
2023-02-02T08:21:19.076Z,3.10
2023-02-02T08:23:46.903Z,2.97
2023-02-02T08:26:18.078Z,3.03
2023-02-02T08:28:48.314Z,3.00
2023-02-02T08:31:19.631Z,3.50
2023-02-02T08:33:47.499Z,2.97
2023-02-02T08:36:17.019Z,2.33
2023-02-02T08:38:44.903Z,2.38
2023-02-02T08:41:14.564Z,2.17
2023-02-02T08:43:43.104Z,3.03
2023-02-02T08:46:12.401Z,3.03
2023-02-02T08:48:41.425Z,2.97
2023-02-02T08:51:11.610Z,2.63
2023-02-02T08:53:39.703Z,2.85
2023-02-02T08:56:10.533Z,2.50
2023-02-02T08:58:38.324Z,1.90
2023-02-02T09:01:07.809Z,2.88
2023-02-02T09:03:36.020Z,2.80
2023-02-02T09:06:10.647Z,2.45
2023-02-02T09:08:38.512Z,2.33
2023-02-02T09:11:08.368Z,2.50
2023-02-02T09:13:36.515Z,2.20
2023-02-02T09:16:06.702Z,2.13
2023-02-02T09:18:34.346Z,2.60
2023-02-02T09:21:02.671Z,2.35
2023-02-02T09:23:32.690Z,2.40
2023-02-02T09:26:10.276Z,2.20
2023-02-02T09:28:39.398Z,2.20
2023-02-02T09:31:07.690Z,2.28
2023-02-02T09:33:35.865Z,2.70
2023-02-02T09:36:08.387Z,2.80
2023-02-02T09:38:37.833Z,2.50
2023-02-02T09:41:26.865Z,2.08
2023-02-02T09:44:05.192Z,2.00
2023-02-02T09:46:46.450Z,1.90
2023-02-02T09:49:18.005Z,2.00
2023-02-02T09:51:50.050Z,1.65
2023-02-02T09:54:22.265Z,1.83
2023-02-02T09:56:57.125Z,2.40
2023-02-02T09:59:28.731Z,2.63
2023-02-02T10:01:59.561Z,1.75
2023-02-02T10:04:33.866Z,2.22
2023-02-02T10:07:09.103Z,2.40
2023-02-02T10:09:44.362Z,2.40
2023-02-02T10:12:26.914Z,2.22
2023-02-02T10:15:00.219Z,1.67
2023-02-02T10:17:39.957Z,2.92
2023-02-02T10:20:19.677Z,2.50
2023-02-02T10:22:48.858Z,2.22
2023-02-02T10:25:18.686Z,1.98
2023-02-02T10:27:57.503Z,2.03
2023-02-02T10:30:35.605Z,2.53
2023-02-02T10:33:06.770Z,2.08
2023-02-02T10:35:43.732Z,2.20
2023-02-02T10:38:24.944Z,2.10
2023-02-02T10:41:03.109Z,2.25
2023-02-02T10:43:49.085Z,2.42
2023-02-02T10:46:23.389Z,2.10
2023-02-02T10:49:01.589Z,2.03
2023-02-02T10:51:30.012Z,2.33
2023-02-02T10:54:01.020Z,2.40
2023-02-02T10:56:35.514Z,2.53
2023-02-02T10:59:07.390Z,2.10
2023-02-02T11:01:34.991Z,2.38
2023-02-02T11:04:20.129Z,2.40
2023-02-02T11:06:50.484Z,2.40
2023-02-02T11:09:22.226Z,2.03
2023-02-02T11:11:55.510Z,2.85
2023-02-02T11:14:33.676Z,2.30
2023-02-02T11:17:05.924Z,2.20
2023-02-02T11:19:34.928Z,2.30
2023-02-02T11:22:04.691Z,2.20
2023-02-02T11:24:45.946Z,2.45
2023-02-02T11:27:19.021Z,2.40
2023-02-02T11:29:49.027Z,2.00
2023-02-02T11:32:26.467Z,1.60
2023-02-02T11:35:20.867Z,2.40
2023-02-02T11:38:02.188Z,2.27
2023-02-02T11:40:33.313Z,2.35
2023-02-02T11:43:06.014Z,2.33
2023-02-02T11:45:36.574Z,1.92
2023-02-02T11:48:08.674Z,2.15
2023-02-02T11:50:36.792Z,2.40
2023-02-02T11:53:04.675Z,1.93
2023-02-02T11:55:33.474Z,1.87
2023-02-02T11:58:27.277Z,2.53
2023-02-02T12:01:01.690Z,2.33
2023-02-02T12:03:33.021Z,2.38
2023-02-02T12:06:02.928Z,1.98
2023-02-02T12:08:31.689Z,2.30
2023-02-02T12:11:02.176Z,2.45
2023-02-02T12:13:47.261Z,3.40
2023-02-02T12:16:34.580Z,3.03
2023-02-02T12:19:20.886Z,2.72
2023-02-02T12:22:00.463Z,5.57
2023-02-02T12:24:32.230Z,2.90
2023-02-02T12:27:14.167Z,2.35
2023-02-02T12:30:03.810Z,2.13
2023-02-02T12:32:55.595Z,2.70
2023-02-02T12:35:38.133Z,2.55
2023-02-02T12:38:16.410Z,2.20
2023-02-02T12:40:57.346Z,2.30
2023-02-02T12:43:34.894Z,2.85
2023-02-02T12:46:16.332Z,2.10
2023-02-02T12:49:01.691Z,1.90
2023-02-02T12:51:44.107Z,2.22
2023-02-02T12:54:32.830Z,2.00
2023-02-02T12:57:14.775Z,1.60
2023-02-02T13:00:02.617Z,1.85
2023-02-02T13:02:37.836Z,2.10
2023-02-02T13:05:33.972Z,2.33
2023-02-02T13:08:09.246Z,1.93
2023-02-02T13:10:40.644Z,1.90
2023-02-02T13:13:13.305Z,2.28
2023-02-02T13:15:45.562Z,1.80
2023-02-02T13:18:19.648Z,1.90
2023-02-02T13:20:52.858Z,1.67
2023-02-02T13:23:27.589Z,2.67
2023-02-02T13:26:01.284Z,2.08
2023-02-02T13:28:38.813Z,2.10
2023-02-02T13:31:17.538Z,2.57
2023-02-02T13:33:50.752Z,2.40
2023-02-02T13:36:25.642Z,1.93
2023-02-02T13:38:56.796Z,2.30
2023-02-02T13:41:25.460Z,2.60
2023-02-02T13:44:01.786Z,2.22
2023-02-02T13:46:36.856Z,2.22
2023-02-02T13:49:13.253Z,2.30
2023-02-02T13:51:51.945Z,2.35
2023-02-02T13:54:53.898Z,2.17
2023-02-02T13:57:38.311Z,2.33
2023-02-02T14:00:15.868Z,2.33
2023-02-02T14:02:47.516Z,2.25
2023-02-02T14:05:26.830Z,3.05
2023-02-02T14:08:03.157Z,2.58
2023-02-02T14:10:35.201Z,2.90
2023-02-02T14:13:30.359Z,2.03
2023-02-02T14:15:59.710Z,2.50
2023-02-02T14:18:55.409Z,2.90
2023-02-02T14:21:56.388Z,2.22
2023-02-02T14:24:53.744Z,2.47
2023-02-02T14:28:02.687Z,2.10
2023-02-02T14:30:34.121Z,1.98
2023-02-02T14:33:25.933Z,1.90
2023-02-02T14:36:01.793Z,1.75
2023-02-02T14:38:59.187Z,1.95
2023-02-02T14:42:00.828Z,1.95
2023-02-02T14:44:30.591Z,2.57
2023-02-02T14:46:59.192Z,2.13
2023-02-02T14:49:35.306Z,2.20
2023-02-02T14:52:05.381Z,2.20
2023-02-02T14:54:38.701Z,1.73
2023-02-02T14:57:23.396Z,1.90
2023-02-02T14:59:52.875Z,1.80
2023-02-02T15:02:25.201Z,2.10
2023-02-02T15:04:53.059Z,3.50
2023-02-02T15:07:55.547Z,2.45
2023-02-02T15:11:00.642Z,1.88
2023-02-02T15:13:37.313Z,2.10
2023-02-02T15:16:10.908Z,2.53
2023-02-02T15:18:44.697Z,2.30
2023-02-02T15:21:16.218Z,2.20
2023-02-02T15:23:46.659Z,3.58
2023-02-02T15:26:20.426Z,11.27
2023-02-02T15:28:54.177Z,28.42
2023-02-02T15:31:30.267Z,13.90
2023-02-02T15:34:01.072Z,2.92
2023-02-02T15:36:31.433Z,3.38
2023-02-02T15:39:02.515Z,8.45
2023-02-02T15:41:34.750Z,4.93
2023-02-02T15:44:19.289Z,4.22
2023-02-02T15:46:48.207Z,1.73
2023-02-02T15:49:33.892Z,3.05
2023-02-02T15:52:11.346Z,4.40
2023-02-02T15:54:39.080Z,3.50
2023-02-02T15:57:24.947Z,2.95
2023-02-02T15:59:53.928Z,5.60
2023-02-02T16:02:27.894Z,21.60
2023-02-02T16:04:55.530Z,20.75
2023-02-02T16:07:29.663Z,3.30
2023-02-02T16:09:57.796Z,6.25
2023-02-02T16:12:26.120Z,7.20
2023-02-02T16:14:56.350Z,9.00
2023-02-02T16:17:28.157Z,9.63
2023-02-02T16:20:01.151Z,6.05
2023-02-02T16:22:30.860Z,3.50
2023-02-02T16:25:02.254Z,5.43
2023-02-02T16:27:32.624Z,3.17
2023-02-02T16:30:08.391Z,6.75
2023-02-02T16:32:38.872Z,3.70
2023-02-02T16:35:26.161Z,3.60
2023-02-02T16:37:53.840Z,9.32
2023-02-02T16:40:27.375Z,5.47
2023-02-02T16:43:05.312Z,2.50
2023-02-02T16:45:36.748Z,3.50
2023-02-02T16:48:28.655Z,5.45
2023-02-02T16:51:27.864Z,4.55
2023-02-02T16:54:02.290Z,6.40
2023-02-02T16:56:33.777Z,3.95
2023-02-02T16:59:06.903Z,6.07
2023-02-02T17:01:40.622Z,3.95
2023-02-02T17:04:19.253Z,3.90
2023-02-02T17:06:52.843Z,24.23
2023-02-02T17:09:35.229Z,25.52
2023-02-02T17:12:09.344Z,12.18
2023-02-02T17:14:52.592Z,16.20
2023-02-02T17:17:21.523Z,10.27
2023-02-02T17:19:49.170Z,3.10
2023-02-02T17:22:18.365Z,4.88
2023-02-02T17:24:48.675Z,5.00
2023-02-02T17:27:23.395Z,14.30
2023-02-02T17:29:51.340Z,2.40
2023-02-02T17:32:18.858Z,5.60
2023-02-02T17:34:47.813Z,4.38
2023-02-02T17:37:15.436Z,3.10
2023-02-02T17:39:43.172Z,2.40
2023-02-02T17:42:21.634Z,3.47
2023-02-02T17:44:49.183Z,6.57
2023-02-02T17:49:44.439Z,3.73
2023-02-02T17:52:13.877Z,3.10
2023-02-02T17:54:41.458Z,3.50
2023-02-02T17:57:09.090Z,2.97
2023-02-02T17:59:36.690Z,2.75
2023-02-02T18:02:04.819Z,5.10
2023-02-02T18:04:32.412Z,4.15
2023-02-02T18:07:00.039Z,6.03
2023-02-02T18:09:33.860Z,2.80
2023-02-02T18:12:01.601Z,2.53
2023-02-02T18:14:29.261Z,2.60
2023-02-02T18:16:57.023Z,2.92
2023-02-02T18:19:24.865Z,2.00
2023-02-02T18:21:52.461Z,2.75
2023-02-02T18:24:20.013Z,2.50
2023-02-02T18:26:49.096Z,2.50
2023-02-02T18:29:16.742Z,2.50
2023-02-02T18:31:44.344Z,2.55
2023-02-02T18:34:12.620Z,3.60
2023-02-02T18:36:40.386Z,3.60
2023-02-02T18:39:09.644Z,2.67
2023-02-02T18:41:37.215Z,2.55
2023-02-02T18:44:06.121Z,2.65
2023-02-02T18:46:34.395Z,2.13
2023-02-02T18:49:02.065Z,3.20
2023-02-02T18:51:31.468Z,5.53
2023-02-02T18:54:00.323Z,8.88
2023-02-02T18:56:28.847Z,4.03
2023-02-02T18:58:56.968Z,4.00
2023-02-02T19:01:26.629Z,4.20
2023-02-02T19:03:57.292Z,5.00
2023-02-02T19:06:42.832Z,8.20
2023-02-02T19:09:10.584Z,6.43
2023-02-02T19:11:40.075Z,10.05
2023-02-02T19:14:14.832Z,3.45
2023-02-02T19:16:44.893Z,5.60
2023-02-02T19:19:23.120Z,4.32
2023-02-02T19:21:54.326Z,11.90
2023-02-02T19:24:22.058Z,4.88
2023-02-02T19:26:51.430Z,4.07
2023-02-02T19:29:22.565Z,6.03
2023-02-02T19:32:00.652Z,4.80
2023-02-02T19:34:28.345Z,3.40
2023-02-02T19:36:56.097Z,5.50
2023-02-02T19:39:30.860Z,3.22
2023-02-02T19:42:01.197Z,3.20
2023-02-02T19:44:33.941Z,3.42
2023-02-02T19:47:03.834Z,2.80
2023-02-02T19:49:34.361Z,2.38
2023-02-02T19:52:03.825Z,2.97
2023-02-02T19:54:34.745Z,3.20
2023-02-02T19:57:07.397Z,2.85
2023-02-02T19:59:36.295Z,5.00
2023-02-02T20:02:34.458Z,2.88
2023-02-02T20:05:08.199Z,2.80
2023-02-02T20:07:35.879Z,3.30
2023-02-02T20:10:18.631Z,3.13
2023-02-02T20:12:46.191Z,3.17
2023-02-02T20:15:25.696Z,2.90
2023-02-02T20:17:58.236Z,3.20
2023-02-02T20:20:28.297Z,3.53
2023-02-02T20:22:57.561Z,3.53
2023-02-02T20:25:25.130Z,3.25
2023-02-02T20:27:54.678Z,3.58
2023-02-02T20:30:26.523Z,3.58
2023-02-02T20:32:57.988Z,3.20
2023-02-02T20:35:34.266Z,3.33
2023-02-02T20:38:02.363Z,5.03
2023-02-02T20:40:31.449Z,4.25
2023-02-02T20:42:59.170Z,5.70
2023-02-02T20:45:28.077Z,3.60
2023-02-02T20:47:57.034Z,3.92
2023-02-02T20:50:25.272Z,3.53
2023-02-02T20:52:54.002Z,3.70
2023-02-02T20:55:21.721Z,2.50
2023-02-02T20:57:49.291Z,3.13
2023-02-02T21:00:21.336Z,2.90
2023-02-02T21:02:49.106Z,3.08
2023-02-02T21:05:18.185Z,3.70
2023-02-02T21:07:45.808Z,3.60
2023-02-02T21:10:13.442Z,3.05
2023-02-02T21:12:41.006Z,3.40
2023-02-02T21:15:09.650Z,2.87
2023-02-02T21:17:37.234Z,3.17
2023-02-02T21:20:05.160Z,2.83
2023-02-02T21:22:35.795Z,3.22
2023-02-02T21:25:03.397Z,3.03
2023-02-02T21:27:31.152Z,3.03
2023-02-02T21:29:59.014Z,3.17
2023-02-02T21:32:26.634Z,3.50
2023-02-02T21:34:54.191Z,5.03
2023-02-02T21:37:21.802Z,5.43
2023-02-02T21:39:51.701Z,6.07
2023-02-02T21:42:22.210Z,7.50
2023-02-02T21:44:54.177Z,5.20
2023-02-02T21:47:29.714Z,5.97
2023-02-02T21:50:00.182Z,5.40
2023-02-02T21:52:33.550Z,4.88
2023-02-02T21:55:29.125Z,4.30
2023-02-02T21:57:59.155Z,4.10
2023-02-02T22:00:30.824Z,4.00
2023-02-02T22:02:59.725Z,4.53
2023-02-02T22:05:34.287Z,4.03
2023-02-02T22:08:08.366Z,4.00
2023-02-02T22:10:39.678Z,4.03
2023-02-02T22:13:17.338Z,3.90
2023-02-02T22:15:47.319Z,6.70
2023-02-02T22:18:18.022Z,4.20
2023-02-02T22:20:47.355Z,4.15
2023-02-02T22:23:17.143Z,4.22
2023-02-02T22:25:47.751Z,3.90
2023-02-02T22:28:20.870Z,4.28
2023-02-02T22:30:48.965Z,4.25
2023-02-02T22:33:16.739Z,4.80
2023-02-02T22:35:44.677Z,4.70
2023-02-02T22:38:17.229Z,4.00
2023-02-02T22:40:46.584Z,3.85
2023-02-02T22:43:16.183Z,4.20
2023-02-02T22:45:44.153Z,4.30
2023-02-02T22:48:12.193Z,4.10
2023-02-02T22:50:39.851Z,4.13
2023-02-02T22:53:07.548Z,4.32
2023-02-02T22:55:36.052Z,4.13
2023-02-02T22:58:05.016Z,4.63
2023-02-02T23:00:33.634Z,3.85
2023-02-02T23:03:01.370Z,4.47
2023-02-02T23:05:29.255Z,4.22
2023-02-02T23:07:56.874Z,4.88
2023-02-02T23:10:27.492Z,4.33
2023-02-02T23:12:58.489Z,5.00
2023-02-02T23:15:27.957Z,4.00
2023-02-02T23:17:55.962Z,4.70
2023-02-02T23:20:23.586Z,4.95
2023-02-02T23:22:51.210Z,4.55
2023-02-02T23:25:19.268Z,4.35
2023-02-02T23:27:47.004Z,3.97
2023-02-02T23:30:15.807Z,4.20
2023-02-02T23:32:44.772Z,4.68
2023-02-02T23:35:12.399Z,3.97
2023-02-02T23:37:39.959Z,4.28
2023-02-02T23:40:08.824Z,4.13
2023-02-02T23:42:37.509Z,4.55
2023-02-02T23:45:05.751Z,4.40
2023-02-02T23:47:33.910Z,4.35
2023-02-02T23:50:06.786Z,3.90
2023-02-02T23:52:35.618Z,4.37
2023-02-02T23:55:03.945Z,3.80
2023-02-02T23:57:33.557Z,4.22
